createdAt,value
2023-02-23T05:15:17.576Z,0.00
2023-02-23T05:16:17.649Z,0.00
2023-02-23T05:17:17.547Z,0.00
2023-02-23T05:18:17.534Z,0.00
2023-02-23T05:19:17.516Z,0.00
2023-02-23T05:20:17.527Z,0.00
2023-02-23T05:21:17.860Z,0.00
2023-02-23T05:22:17.492Z,0.00
2023-02-23T05:23:17.465Z,0.00
2023-02-23T05:24:17.461Z,0.00
2023-02-23T05:25:17.437Z,0.00
2023-02-23T05:26:17.448Z,0.00
2023-02-23T05:27:17.419Z,0.00
2023-02-23T05:28:17.417Z,0.00
2023-02-23T05:29:17.397Z,0.00
2023-02-23T05:30:17.383Z,0.00
2023-02-23T05:31:17.724Z,0.00
2023-02-23T05:32:17.488Z,0.00
2023-02-23T05:33:18.313Z,0.00
2023-02-23T05:34:17.335Z,0.00
2023-02-23T05:35:17.312Z,0.00
2023-02-23T05:36:17.326Z,0.00
2023-02-23T05:37:17.303Z,0.00
2023-02-23T05:38:17.283Z,0.00
2023-02-23T05:39:17.271Z,0.00
2023-02-23T05:40:17.260Z,0.00
2023-02-23T05:41:17.509Z,0.00
2023-02-23T05:42:17.232Z,0.00
2023-02-23T05:43:17.210Z,0.00
2023-02-23T05:44:17.202Z,0.00
2023-02-23T05:45:17.189Z,0.00
2023-02-23T05:46:17.210Z,0.00
2023-02-23T05:47:17.159Z,0.00
2023-02-23T05:48:17.160Z,0.00
2023-02-23T05:49:17.136Z,0.00
2023-02-23T05:50:17.127Z,0.00
2023-02-23T05:51:17.672Z,0.00
2023-02-23T05:52:17.097Z,0.00
2023-02-23T05:53:17.089Z,0.00
2023-02-23T05:54:17.077Z,0.00
2023-02-23T05:55:17.067Z,0.00
2023-02-23T05:56:17.067Z,0.00
2023-02-23T05:57:17.029Z,0.00
2023-02-23T05:58:17.055Z,0.00
2023-02-23T05:59:17.010Z,0.00
2023-02-23T06:00:16.998Z,0.00
2023-02-23T06:01:17.358Z,0.00
2023-02-23T06:02:17.047Z,0.00
2023-02-23T06:03:17.032Z,0.00
2023-02-23T06:04:16.958Z,0.00
2023-02-23T06:05:16.928Z,0.00
2023-02-23T06:06:16.938Z,0.00
2023-02-23T06:07:16.908Z,0.00
2023-02-23T06:08:16.902Z,0.00
2023-02-23T06:09:16.877Z,0.00
2023-02-23T06:10:16.887Z,0.00
2023-02-23T06:11:17.139Z,0.00
2023-02-23T06:12:16.848Z,0.00
2023-02-23T06:13:16.830Z,0.00
2023-02-23T06:14:16.822Z,0.00
2023-02-23T06:15:16.812Z,0.00
2023-02-23T06:16:16.907Z,0.00
2023-02-23T06:17:16.787Z,0.00
2023-02-23T06:18:16.779Z,0.00
2023-02-23T06:19:16.772Z,0.00
2023-02-23T06:20:16.759Z,0.00
2023-02-23T06:21:16.818Z,0.00
2023-02-23T06:22:16.726Z,0.00
2023-02-23T06:23:16.712Z,0.00
2023-02-23T06:24:16.709Z,0.00
2023-02-23T06:25:16.681Z,0.00
2023-02-23T06:26:16.682Z,0.00
2023-02-23T06:27:16.672Z,0.00
2023-02-23T06:28:16.656Z,0.00
2023-02-23T06:29:16.629Z,0.00
2023-02-23T06:30:16.626Z,0.00
2023-02-23T06:31:16.983Z,0.00
2023-02-23T06:32:16.697Z,0.00
2023-02-23T06:33:16.583Z,0.00
2023-02-23T06:34:16.575Z,0.00
2023-02-23T06:35:16.565Z,0.00
2023-02-23T06:36:16.555Z,0.00
2023-02-23T06:37:16.535Z,0.00
2023-02-23T06:38:16.536Z,0.00
2023-02-23T06:39:16.512Z,0.00
2023-02-23T06:40:16.494Z,0.00
2023-02-23T06:41:16.890Z,0.00
2023-02-23T06:42:16.483Z,0.00
2023-02-23T06:43:16.464Z,0.00
2023-02-23T06:44:16.451Z,0.00
2023-02-23T06:45:16.434Z,0.00
2023-02-23T06:46:16.449Z,0.00
2023-02-23T06:47:16.418Z,0.00
2023-02-23T06:48:16.395Z,0.00
2023-02-23T06:49:16.747Z,0.00
2023-02-23T06:50:16.371Z,0.00
2023-02-23T06:51:16.388Z,0.00
2023-02-23T06:52:16.357Z,5.62
2023-02-23T06:53:16.334Z,5.62
2023-02-23T06:54:16.368Z,5.62
2023-02-23T06:55:16.303Z,5.62
2023-02-23T06:56:16.297Z,5.62
2023-02-23T06:57:16.291Z,5.62
2023-02-23T06:58:16.262Z,5.62
2023-02-23T06:59:16.253Z,5.62
2023-02-23T07:00:16.242Z,5.62
2023-02-23T07:01:16.329Z,5.62
2023-02-23T07:02:16.223Z,5.62
2023-02-23T07:03:16.210Z,5.62
2023-02-23T07:04:16.932Z,5.62
2023-02-23T07:05:16.220Z,5.62
2023-02-23T07:06:16.168Z,5.62
2023-02-23T07:07:16.158Z,5.62
2023-02-23T07:08:16.138Z,5.62
2023-02-23T07:09:16.125Z,5.62
2023-02-23T07:10:16.129Z,5.62
2023-02-23T07:11:16.116Z,5.62
2023-02-23T07:12:16.101Z,5.62
2023-02-23T07:13:16.067Z,5.62
2023-02-23T07:14:26.053Z,5.62
2023-02-23T07:15:17.044Z,5.62
2023-02-23T07:16:16.082Z,11.25
2023-02-23T07:17:16.027Z,11.25
2023-02-23T07:18:16.013Z,11.25
2023-02-23T07:19:15.995Z,11.25
2023-02-23T07:20:15.988Z,11.25
2023-02-23T07:21:16.001Z,11.25
2023-02-23T07:22:15.978Z,11.25
2023-02-23T07:23:15.955Z,11.25
2023-02-23T07:24:15.932Z,11.25
2023-02-23T07:25:15.925Z,11.25
2023-02-23T07:26:15.919Z,11.25
2023-02-23T07:27:15.892Z,11.25
2023-02-23T07:28:15.891Z,11.25
2023-02-23T07:29:15.904Z,11.25
2023-02-23T07:30:15.865Z,11.25
2023-02-23T07:31:15.869Z,11.25
2023-02-23T07:32:15.974Z,11.25
2023-02-23T07:33:15.841Z,11.25
2023-02-23T07:34:15.819Z,11.25
2023-02-23T07:35:15.790Z,11.25
2023-02-23T07:36:15.771Z,16.88
2023-02-23T07:37:15.762Z,16.88
2023-02-23T07:38:15.767Z,16.88
2023-02-23T07:39:15.744Z,16.88
2023-02-23T07:40:15.724Z,16.88
2023-02-23T07:41:15.714Z,16.88
2023-02-23T07:42:15.721Z,16.88
2023-02-23T07:43:15.705Z,22.50
2023-02-23T07:44:15.678Z,22.50
2023-02-23T07:45:15.680Z,22.50
2023-02-23T07:46:15.696Z,22.50
2023-02-23T07:47:15.648Z,22.50
2023-02-23T07:48:15.637Z,22.50
2023-02-23T07:49:15.615Z,22.50
2023-02-23T07:50:15.596Z,22.50
2023-02-23T07:51:15.592Z,22.50
2023-02-23T07:52:15.575Z,22.50
2023-02-23T07:53:15.585Z,22.50
2023-02-23T07:54:15.548Z,22.50
2023-02-23T07:55:15.536Z,22.50
2023-02-23T07:56:15.527Z,22.50
2023-02-23T07:57:15.516Z,22.50
2023-02-23T07:58:15.533Z,22.50
2023-02-23T07:59:15.488Z,22.50
2023-02-23T08:00:15.480Z,28.12
2023-02-23T08:01:15.536Z,28.12
2023-02-23T08:02:15.445Z,28.12
2023-02-23T08:03:15.453Z,28.12
2023-02-23T08:04:15.433Z,28.12
2023-02-23T08:05:15.419Z,28.12
2023-02-23T08:06:15.395Z,33.75
2023-02-23T08:07:15.388Z,33.75
2023-02-23T08:08:15.379Z,39.38
2023-02-23T08:09:15.365Z,39.38
2023-02-23T08:10:15.382Z,45.00
2023-02-23T08:11:15.334Z,45.00
2023-02-23T08:12:15.316Z,50.62
2023-02-23T08:13:15.314Z,50.62
2023-02-23T08:14:15.295Z,50.62
2023-02-23T08:15:15.285Z,50.62
2023-02-23T08:16:15.265Z,50.62
2023-02-23T08:17:15.261Z,50.62
2023-02-23T08:18:15.281Z,50.62
2023-02-23T08:19:15.232Z,56.25
2023-02-23T08:20:15.226Z,56.25
2023-02-23T08:21:15.201Z,56.25
2023-02-23T08:22:15.194Z,56.25
2023-02-23T08:23:15.193Z,56.25
2023-02-23T08:24:15.176Z,61.88
2023-02-23T08:25:15.152Z,61.88
2023-02-23T08:26:15.144Z,61.88
2023-02-23T08:27:15.131Z,61.88
2023-02-23T08:28:15.116Z,67.50
2023-02-23T08:29:15.114Z,67.50
2023-02-23T08:30:15.093Z,67.50
2023-02-23T08:31:15.184Z,61.88
2023-02-23T08:32:15.209Z,61.88
2023-02-23T08:33:15.041Z,61.88
2023-02-23T08:34:15.060Z,56.25
2023-02-23T08:35:15.021Z,56.25
2023-02-23T08:36:15.021Z,56.25
2023-02-23T08:37:14.998Z,50.62
2023-02-23T08:38:14.994Z,50.62
2023-02-23T08:39:14.980Z,50.62
2023-02-23T08:40:14.959Z,45.00
2023-02-23T08:41:14.942Z,45.00
2023-02-23T08:42:14.932Z,45.00
2023-02-23T08:43:16.304Z,45.00
2023-02-23T08:44:14.923Z,45.00
2023-02-23T08:45:14.893Z,39.38
2023-02-23T08:46:14.993Z,39.38
2023-02-23T08:47:14.859Z,39.38
2023-02-23T08:48:14.859Z,39.38
2023-02-23T08:49:14.852Z,39.38
2023-02-23T08:50:14.844Z,39.38
2023-02-23T08:51:14.811Z,39.38
2023-02-23T08:52:14.815Z,45.00
2023-02-23T08:53:14.784Z,45.00
2023-02-23T08:54:14.783Z,50.62
2023-02-23T08:55:14.773Z,50.62
2023-02-23T08:56:14.753Z,50.62
2023-02-23T08:57:14.733Z,50.62
2023-02-23T08:58:14.725Z,50.62
2023-02-23T08:59:14.712Z,50.62
2023-02-23T09:00:14.703Z,50.62
2023-02-23T09:01:14.694Z,50.62
2023-02-23T09:02:14.677Z,50.62
2023-02-23T09:03:14.653Z,50.62
2023-02-23T09:04:14.662Z,50.62
2023-02-23T09:05:14.670Z,50.62
2023-02-23T09:06:14.621Z,50.62
2023-02-23T09:07:14.611Z,50.62
2023-02-23T09:08:14.591Z,50.62
2023-02-23T09:09:14.592Z,50.62
2023-02-23T09:10:14.565Z,50.62
2023-02-23T09:11:14.550Z,50.62
2023-02-23T09:12:14.540Z,50.62
2023-02-23T09:13:14.531Z,45.00
2023-02-23T09:14:14.531Z,45.00
2023-02-23T09:15:14.499Z,45.00
2023-02-23T09:16:14.590Z,45.00
2023-02-23T09:17:16.086Z,50.62
2023-02-23T09:18:14.468Z,56.25
2023-02-23T09:19:14.460Z,61.88
2023-02-23T09:20:14.430Z,67.50
2023-02-23T09:21:14.424Z,67.50
2023-02-23T09:22:14.418Z,73.12
2023-02-23T09:23:14.403Z,78.75
2023-02-23T09:24:14.440Z,84.38
2023-02-23T09:25:14.371Z,90.00
2023-02-23T09:26:14.367Z,95.62
2023-02-23T09:27:14.338Z,95.62
2023-02-23T09:28:14.338Z,101.25
2023-02-23T09:29:14.328Z,101.25
2023-02-23T09:30:14.321Z,101.25
2023-02-23T09:31:14.369Z,101.25
2023-02-23T09:32:14.351Z,101.25
2023-02-23T09:33:14.286Z,95.62
2023-02-23T09:34:14.249Z,95.62
2023-02-23T09:35:14.248Z,95.62
2023-02-23T09:36:14.230Z,95.62
2023-02-23T09:37:14.224Z,90.00
2023-02-23T09:38:14.208Z,95.62
2023-02-23T09:39:14.189Z,95.62
2023-02-23T09:40:14.192Z,101.25
2023-02-23T09:41:14.169Z,101.25
2023-02-23T09:42:14.154Z,106.88
2023-02-23T09:43:14.137Z,106.88
2023-02-23T09:44:14.125Z,112.50
2023-02-23T09:45:14.128Z,118.12
2023-02-23T09:46:14.236Z,129.38
2023-02-23T09:47:14.091Z,129.38
2023-02-23T09:48:14.089Z,123.75
2023-02-23T09:49:14.066Z,118.12
2023-02-23T09:50:14.095Z,118.12
2023-02-23T09:51:14.046Z,118.12
2023-02-23T09:52:14.222Z,112.50
2023-02-23T09:53:14.024Z,106.88
2023-02-23T09:54:14.010Z,101.25
2023-02-23T09:55:14.021Z,101.25
2023-02-23T09:56:13.988Z,95.62
2023-02-23T09:57:13.972Z,95.62
2023-02-23T09:58:13.948Z,95.62
2023-02-23T09:59:13.962Z,95.62
2023-02-23T10:00:13.971Z,95.62
2023-02-23T10:01:13.973Z,101.25
2023-02-23T10:02:13.908Z,106.88
2023-02-23T10:03:13.909Z,112.50
2023-02-23T10:04:13.934Z,118.12
2023-02-23T10:05:13.930Z,123.75
2023-02-23T10:06:13.860Z,129.38
2023-02-23T10:07:13.844Z,129.38
2023-02-23T10:08:13.828Z,129.38
2023-02-23T10:09:13.829Z,129.38
2023-02-23T10:10:13.854Z,129.38
2023-02-23T10:11:21.114Z,129.38
2023-02-23T10:12:13.778Z,129.38
2023-02-23T10:13:13.770Z,123.75
2023-02-23T10:14:13.752Z,118.12
2023-02-23T10:15:13.754Z,101.25
2023-02-23T10:16:13.749Z,95.62
2023-02-23T10:17:13.712Z,101.25
2023-02-23T10:18:13.726Z,101.25
2023-02-23T10:19:13.689Z,95.62
2023-02-23T10:20:13.688Z,90.00
2023-02-23T10:21:13.660Z,84.38
2023-02-23T10:22:13.661Z,78.75
2023-02-23T10:23:13.649Z,73.12
2023-02-23T10:24:13.631Z,67.50
2023-02-23T10:25:13.631Z,67.50
2023-02-23T10:26:13.597Z,67.50
2023-02-23T10:27:13.577Z,73.12
2023-02-23T10:28:13.578Z,73.12
2023-02-23T10:29:13.566Z,73.12
2023-02-23T10:30:13.558Z,67.50
2023-02-23T10:31:13.657Z,67.50
2023-02-23T10:32:13.617Z,73.12
2023-02-23T10:33:13.510Z,73.12
2023-02-23T10:34:13.509Z,73.12
2023-02-23T10:35:13.496Z,73.12
2023-02-23T10:36:14.056Z,73.12
2023-02-23T10:37:13.456Z,67.50
2023-02-23T10:38:13.460Z,67.50
2023-02-23T10:39:13.427Z,67.50
2023-02-23T10:40:13.434Z,67.50
2023-02-23T10:41:14.957Z,67.50
2023-02-23T10:42:13.403Z,67.50
2023-02-23T10:43:13.389Z,61.88
2023-02-23T10:44:17.021Z,56.25
2023-02-23T10:45:13.373Z,56.25
2023-02-23T10:46:13.402Z,50.62
2023-02-23T10:47:13.327Z,50.62
2023-02-23T10:48:13.339Z,50.62
2023-02-23T10:49:13.312Z,45.00
2023-02-23T10:50:13.296Z,45.00
2023-02-23T10:51:13.284Z,45.00
2023-02-23T10:52:13.308Z,45.00
2023-02-23T10:53:13.255Z,50.62
2023-02-23T10:54:13.245Z,50.62
2023-02-23T10:55:13.233Z,56.25
2023-02-23T10:56:13.235Z,61.88
2023-02-23T10:57:13.200Z,61.88
2023-02-23T10:58:13.191Z,67.50
2023-02-23T10:59:13.171Z,67.50
2023-02-23T11:00:13.169Z,73.12
2023-02-23T11:01:13.199Z,78.75
2023-02-23T11:02:13.163Z,84.38
2023-02-23T11:03:13.120Z,90.00
2023-02-23T11:04:13.152Z,90.00
2023-02-23T11:05:13.089Z,90.00
2023-02-23T11:06:13.090Z,90.00
2023-02-23T11:07:13.062Z,84.38
2023-02-23T11:08:13.057Z,84.38
2023-02-23T11:09:13.041Z,84.38
2023-02-23T11:10:13.547Z,90.00
2023-02-23T11:11:13.468Z,95.62
2023-02-23T11:12:12.997Z,101.25
2023-02-23T11:13:12.987Z,112.50
2023-02-23T11:14:12.978Z,112.50
2023-02-23T11:15:12.957Z,118.12
2023-02-23T11:16:13.094Z,123.75
2023-02-23T11:17:12.937Z,129.38
2023-02-23T11:18:12.930Z,135.00
2023-02-23T11:19:12.917Z,146.25
2023-02-23T11:20:12.895Z,157.50
2023-02-23T11:21:12.904Z,168.75
2023-02-23T11:22:12.876Z,157.50
2023-02-23T11:23:14.804Z,146.25
2023-02-23T11:24:12.845Z,151.88
2023-02-23T11:25:12.836Z,151.88
2023-02-23T11:26:12.845Z,146.25
2023-02-23T11:27:12.814Z,140.62
2023-02-23T11:28:12.796Z,135.00
2023-02-23T11:29:12.783Z,123.75
2023-02-23T11:30:12.778Z,118.12
2023-02-23T11:31:12.955Z,106.88
2023-02-23T11:32:12.857Z,101.25
2023-02-23T11:33:12.745Z,95.62
2023-02-23T11:34:12.724Z,90.00
2023-02-23T11:35:12.723Z,84.38
2023-02-23T11:36:12.704Z,84.38
2023-02-23T11:37:12.688Z,90.00
2023-02-23T11:38:12.662Z,95.62
2023-02-23T11:39:12.664Z,95.62
2023-02-23T11:40:12.671Z,90.00
2023-02-23T11:41:12.656Z,84.38
2023-02-23T11:42:12.616Z,78.75
2023-02-23T11:43:12.615Z,78.75
2023-02-23T11:44:12.593Z,84.38
2023-02-23T11:45:12.589Z,90.00
2023-02-23T11:46:12.644Z,90.00
2023-02-23T11:47:12.592Z,84.38
2023-02-23T11:48:12.540Z,84.38
2023-02-23T11:49:12.535Z,84.38
2023-02-23T11:50:12.521Z,90.00
2023-02-23T11:51:12.514Z,95.62
2023-02-23T11:52:12.522Z,101.25
2023-02-23T11:53:12.488Z,112.50
2023-02-23T11:54:12.473Z,123.75
2023-02-23T11:55:12.460Z,135.00
2023-02-23T11:56:12.461Z,140.62
2023-02-23T11:57:12.469Z,146.25
2023-02-23T11:58:12.422Z,151.88
2023-02-23T11:59:12.410Z,168.75
2023-02-23T12:00:12.405Z,174.38
2023-02-23T12:01:12.476Z,174.38
2023-02-23T12:02:12.383Z,168.75
2023-02-23T12:03:12.410Z,163.12
2023-02-23T12:04:12.344Z,157.50
2023-02-23T12:05:12.387Z,163.12
2023-02-23T12:06:12.400Z,168.75
2023-02-23T12:07:12.334Z,174.38
2023-02-23T12:08:12.332Z,168.75
2023-02-23T12:09:12.291Z,157.50
2023-02-23T12:10:12.284Z,140.62
2023-02-23T12:11:12.280Z,146.25
2023-02-23T12:12:12.513Z,157.50
2023-02-23T12:13:12.253Z,174.38
2023-02-23T12:14:12.234Z,180.00
2023-02-23T12:15:12.212Z,185.62
2023-02-23T12:16:12.227Z,191.25
2023-02-23T12:17:12.192Z,196.88
2023-02-23T12:18:12.175Z,185.62
2023-02-23T12:19:12.169Z,163.12
2023-02-23T12:20:12.156Z,123.75
2023-02-23T12:21:12.131Z,95.62
2023-02-23T12:22:12.168Z,78.75
2023-02-23T12:23:12.121Z,73.12
2023-02-23T12:24:12.093Z,67.50
2023-02-23T12:25:12.081Z,61.88
2023-02-23T12:26:12.073Z,61.88
2023-02-23T12:27:12.074Z,56.25
2023-02-23T12:28:18.862Z,56.25
2023-02-23T12:29:13.041Z,56.25
2023-02-23T12:30:12.019Z,50.62
2023-02-23T12:31:12.008Z,50.62
2023-02-23T12:32:12.121Z,56.25
2023-02-23T12:33:11.976Z,56.25
2023-02-23T12:34:11.956Z,56.25
2023-02-23T12:35:11.959Z,56.25
2023-02-23T12:36:11.948Z,50.62
2023-02-23T12:37:11.944Z,50.62
2023-02-23T12:38:11.906Z,45.00
2023-02-23T12:39:11.907Z,45.00
2023-02-23T12:40:11.888Z,39.38
2023-02-23T12:41:11.879Z,39.38
2023-02-23T12:42:11.863Z,33.75
2023-02-23T12:43:11.887Z,33.75
2023-02-23T12:44:11.824Z,33.75
2023-02-23T12:45:11.816Z,33.75
2023-02-23T12:46:11.852Z,33.75
2023-02-23T12:47:11.794Z,33.75
2023-02-23T12:48:11.792Z,33.75
2023-02-23T12:49:11.764Z,39.38
2023-02-23T12:50:11.763Z,39.38
2023-02-23T12:51:11.756Z,39.38
2023-02-23T12:52:11.732Z,39.38
2023-02-23T12:53:11.743Z,39.38
2023-02-23T12:54:11.710Z,39.38
2023-02-23T12:55:11.711Z,39.38
2023-02-23T12:56:11.682Z,45.00
2023-02-23T12:57:11.669Z,45.00
2023-02-23T12:58:11.671Z,50.62
2023-02-23T12:59:11.642Z,50.62
2023-02-23T13:00:11.641Z,50.62
2023-02-23T13:01:11.726Z,50.62
2023-02-23T13:02:11.663Z,50.62
2023-02-23T13:03:11.610Z,50.62
2023-02-23T13:04:11.586Z,56.25
2023-02-23T13:05:11.573Z,61.88
2023-02-23T13:06:11.562Z,67.50
2023-02-23T13:07:11.552Z,67.50
2023-02-23T13:08:13.636Z,67.50
2023-02-23T13:09:11.522Z,67.50
2023-02-23T13:10:11.517Z,61.88
2023-02-23T13:11:12.346Z,56.25
2023-02-23T13:12:11.487Z,56.25
2023-02-23T13:13:11.491Z,61.88
2023-02-23T13:14:11.466Z,61.88
2023-02-23T13:15:11.444Z,56.25
2023-02-23T13:16:11.433Z,56.25
2023-02-23T13:17:11.424Z,56.25
2023-02-23T13:18:11.425Z,50.62
2023-02-23T13:19:11.395Z,50.62
2023-02-23T13:20:11.489Z,50.62
2023-02-23T13:21:11.376Z,45.00
2023-02-23T13:22:11.364Z,45.00
2023-02-23T13:23:11.353Z,45.00
2023-02-23T13:24:11.338Z,39.38
2023-02-23T13:25:11.314Z,39.38
2023-02-23T13:26:11.317Z,33.75
2023-02-23T13:27:11.293Z,28.12
2023-02-23T13:28:11.302Z,28.12
2023-02-23T13:29:11.286Z,28.12
2023-02-23T13:30:11.301Z,22.50
2023-02-23T13:31:11.353Z,22.50
2023-02-23T13:32:11.394Z,22.50
2023-02-23T13:33:11.234Z,22.50
2023-02-23T13:34:11.227Z,22.50
2023-02-23T13:35:11.194Z,22.50
2023-02-23T13:36:11.184Z,22.50
2023-02-23T13:37:11.173Z,22.50
2023-02-23T13:38:11.369Z,22.50
2023-02-23T13:39:18.586Z,28.12
2023-02-23T13:40:12.130Z,28.12
2023-02-23T13:41:11.120Z,28.12
2023-02-23T13:42:11.111Z,33.75
2023-02-23T13:43:11.119Z,33.75
2023-02-23T13:44:11.093Z,33.75
2023-02-23T13:45:11.067Z,33.75
2023-02-23T13:46:11.077Z,39.38
2023-02-23T13:47:11.049Z,39.38
2023-02-23T13:48:11.057Z,45.00
2023-02-23T13:49:11.016Z,45.00
2023-02-23T13:50:11.005Z,45.00
2023-02-23T13:51:11.006Z,39.38
2023-02-23T13:52:10.978Z,39.38
2023-02-23T13:53:10.956Z,39.38
2023-02-23T13:54:10.956Z,33.75
2023-02-23T13:55:10.934Z,33.75
2023-02-23T13:56:10.925Z,33.75
2023-02-23T13:57:10.905Z,33.75
2023-02-23T13:58:10.906Z,33.75
2023-02-23T13:59:10.884Z,28.12
2023-02-23T14:00:10.881Z,28.12
2023-02-23T14:01:10.877Z,28.12
2023-02-23T14:02:10.964Z,28.12
2023-02-23T14:03:10.859Z,28.12
2023-02-23T14:04:10.842Z,33.75
2023-02-23T14:05:10.803Z,33.75
2023-02-23T14:06:10.804Z,39.38
2023-02-23T14:07:10.773Z,39.38
2023-02-23T14:08:10.774Z,39.38
2023-02-23T14:09:10.783Z,39.38
2023-02-23T14:10:10.744Z,33.75
2023-02-23T14:11:10.733Z,33.75
2023-02-23T14:12:10.733Z,33.75
2023-02-23T14:13:10.712Z,33.75
2023-02-23T14:14:10.712Z,33.75
2023-02-23T14:15:10.690Z,39.38
2023-02-23T14:16:10.691Z,39.38
2023-02-23T14:17:10.665Z,39.38
2023-02-23T14:18:10.712Z,39.38
2023-02-23T14:19:10.645Z,33.75
2023-02-23T14:20:13.444Z,28.12
2023-02-23T14:21:10.609Z,28.12
2023-02-23T14:22:10.584Z,28.12
2023-02-23T14:23:10.576Z,22.50
2023-02-23T14:24:10.589Z,22.50
2023-02-23T14:25:10.602Z,22.50
2023-02-23T14:26:10.546Z,22.50
2023-02-23T14:27:10.523Z,22.50
2023-02-23T14:28:10.516Z,28.12
2023-02-23T14:29:10.506Z,28.12
2023-02-23T14:30:10.521Z,28.12
2023-02-23T14:31:10.603Z,33.75
2023-02-23T14:32:10.524Z,33.75
2023-02-23T14:33:20.214Z,33.75
2023-02-23T14:34:11.436Z,33.75
2023-02-23T14:35:10.434Z,33.75
2023-02-23T14:36:10.425Z,33.75
2023-02-23T14:37:10.395Z,39.38
2023-02-23T14:38:10.411Z,39.38
2023-02-23T14:39:10.396Z,39.38
2023-02-23T14:40:10.386Z,39.38
2023-02-23T14:41:10.383Z,39.38
2023-02-23T14:42:10.342Z,39.38
2023-02-23T14:43:10.333Z,39.38
2023-02-23T14:44:20.120Z,39.38
2023-02-23T14:45:11.303Z,39.38
2023-02-23T14:46:10.363Z,39.38
2023-02-23T14:47:10.311Z,45.00
2023-02-23T14:48:10.276Z,45.00
2023-02-23T14:49:10.421Z,39.38
2023-02-23T14:50:10.238Z,39.38
2023-02-23T14:51:16.365Z,39.38
2023-02-23T14:52:11.220Z,39.38
2023-02-23T14:53:10.203Z,39.38
2023-02-23T14:54:10.178Z,39.38
2023-02-23T14:55:10.177Z,39.38
2023-02-23T14:56:10.158Z,39.38
2023-02-23T14:57:10.140Z,33.75
2023-02-23T14:58:10.126Z,33.75
2023-02-23T14:59:10.107Z,28.12
2023-02-23T15:00:10.116Z,28.12
2023-02-23T15:01:10.086Z,28.12
2023-02-23T15:02:10.085Z,22.50
2023-02-23T15:03:10.066Z,22.50
2023-02-23T15:04:10.045Z,22.50
2023-02-23T15:05:10.052Z,16.88
2023-02-23T15:06:10.121Z,16.88
2023-02-23T15:07:10.034Z,22.50
2023-02-23T15:08:10.016Z,22.50
2023-02-23T15:09:09.984Z,22.50
2023-02-23T15:10:09.994Z,22.50
2023-02-23T15:11:09.972Z,22.50
2023-02-23T15:12:09.953Z,22.50
2023-02-23T15:13:09.926Z,22.50
2023-02-23T15:14:21.856Z,22.50
2023-02-23T15:15:10.913Z,28.12
2023-02-23T15:16:09.960Z,28.12
2023-02-23T15:17:09.888Z,33.75
2023-02-23T15:18:09.875Z,33.75
2023-02-23T15:19:09.853Z,33.75
2023-02-23T15:20:16.393Z,33.75
2023-02-23T15:21:10.826Z,28.12
2023-02-23T15:22:09.821Z,28.12
2023-02-23T15:23:09.833Z,28.12
2023-02-23T15:24:09.792Z,22.50
2023-02-23T15:25:09.801Z,22.50
2023-02-23T15:26:23.506Z,22.50
2023-02-23T15:27:10.753Z,22.50
2023-02-23T15:28:09.741Z,22.50
2023-02-23T15:29:09.722Z,22.50
2023-02-23T15:30:09.729Z,22.50
2023-02-23T15:31:09.784Z,22.50
2023-02-23T15:32:09.919Z,16.88
2023-02-23T15:33:09.671Z,16.88
2023-02-23T15:34:09.681Z,16.88
2023-02-23T15:35:09.662Z,16.88
2023-02-23T15:36:09.646Z,16.88
2023-02-23T15:37:09.629Z,11.25
2023-02-23T15:38:18.174Z,11.25
2023-02-23T15:39:10.592Z,11.25
2023-02-23T15:40:09.752Z,11.25
2023-02-23T15:41:09.572Z,11.25
2023-02-23T15:42:09.573Z,11.25
2023-02-23T15:43:09.551Z,5.62
2023-02-23T15:44:09.540Z,5.62
2023-02-23T15:45:09.528Z,5.62
2023-02-23T15:46:09.553Z,5.62
2023-02-23T15:47:09.498Z,5.62
2023-02-23T15:48:09.492Z,5.62
2023-02-23T15:49:09.501Z,5.62
2023-02-23T15:50:09.491Z,5.62
2023-02-23T15:51:09.466Z,5.62
2023-02-23T15:52:09.439Z,5.62
2023-02-23T15:53:09.428Z,5.62
2023-02-23T15:54:09.409Z,5.62
2023-02-23T15:55:09.403Z,5.62
2023-02-23T15:56:09.398Z,5.62
2023-02-23T15:57:09.377Z,5.62
2023-02-23T15:58:09.384Z,5.62
2023-02-23T15:59:09.372Z,5.62
2023-02-23T16:00:09.340Z,5.62
2023-02-23T16:01:09.356Z,5.62
2023-02-23T16:02:09.375Z,5.62
2023-02-23T16:03:09.302Z,5.62
2023-02-23T16:04:09.342Z,5.62
2023-02-23T16:05:09.301Z,5.62
2023-02-23T16:06:09.270Z,5.62
2023-02-23T16:07:09.258Z,5.62
2023-02-23T16:08:09.228Z,5.62
2023-02-23T16:09:09.228Z,5.62
2023-02-23T16:10:09.240Z,5.62
2023-02-23T16:11:59.064Z,5.62
2023-02-23T16:12:58.999Z,5.62
2023-02-23T16:13:59.010Z,5.62
2023-02-23T16:14:58.960Z,5.62
2023-02-23T16:15:58.952Z,5.62
2023-02-23T16:17:10.818Z,5.62
2023-02-23T16:17:59.939Z,5.62
2023-02-23T16:18:58.911Z,5.62
2023-02-23T16:19:58.890Z,5.62
2023-02-23T16:20:58.913Z,5.62
2023-02-23T16:21:58.874Z,5.62
2023-02-23T16:22:58.855Z,5.62
2023-02-23T16:23:58.852Z,5.62
2023-02-23T16:24:58.837Z,5.62
2023-02-23T16:25:58.830Z,5.62
2023-02-23T16:26:58.801Z,5.62
2023-02-23T16:27:58.821Z,5.62
2023-02-23T16:28:58.788Z,5.62
2023-02-23T16:29:58.762Z,5.62
2023-02-23T16:30:58.781Z,5.62
2023-02-23T16:31:58.880Z,5.62
2023-02-23T16:32:58.796Z,11.25
2023-02-23T16:33:58.721Z,11.25
2023-02-23T16:34:58.702Z,11.25
2023-02-23T16:35:58.705Z,11.25
2023-02-23T16:36:58.702Z,11.25
2023-02-23T16:37:58.683Z,11.25
2023-02-23T16:38:58.659Z,11.25
2023-02-23T16:39:58.647Z,5.62
2023-02-23T16:40:58.649Z,5.62
2023-02-23T16:41:58.657Z,5.62
2023-02-23T16:42:58.592Z,5.62
2023-02-23T16:43:58.592Z,5.62
2023-02-23T16:44:58.574Z,5.62
2023-02-23T16:45:58.594Z,0.00
2023-02-23T16:46:58.542Z,0.00
2023-02-23T16:47:58.532Z,0.00
2023-02-23T16:48:58.521Z,0.00
2023-02-23T16:50:00.783Z,0.00
2023-02-23T16:50:58.513Z,0.00
2023-02-23T16:51:58.531Z,0.00
2023-02-23T16:52:58.515Z,0.00
2023-02-23T16:53:58.467Z,0.00
2023-02-23T16:54:58.441Z,0.00
2023-02-23T16:55:58.433Z,0.00
2023-02-23T16:56:58.447Z,0.00
2023-02-23T16:57:58.402Z,0.00
2023-02-23T16:58:58.387Z,0.00
2023-02-23T16:59:58.384Z,0.00
2023-02-23T17:00:58.359Z,0.00
2023-02-23T17:01:58.352Z,0.00
2023-02-23T17:02:58.370Z,0.00
2023-02-23T17:03:58.321Z,0.00
2023-02-23T17:04:58.317Z,0.00
2023-02-23T17:05:58.307Z,0.00
2023-02-23T17:06:58.291Z,0.00
2023-02-23T17:07:58.308Z,0.00
2023-02-23T17:08:58.770Z,0.00
2023-02-23T17:09:58.273Z,0.00
2023-02-23T17:10:58.226Z,0.00
2023-02-23T17:11:58.232Z,0.00
2023-02-23T17:12:58.210Z,0.00
2023-02-23T17:13:58.199Z,0.00
2023-02-23T17:14:58.180Z,0.00
2023-02-23T17:15:58.159Z,0.00
2023-02-23T17:16:59.548Z,0.00
2023-02-23T17:17:58.185Z,0.00
2023-02-23T17:18:58.128Z,0.00
2023-02-23T17:19:58.112Z,0.00
2023-02-23T17:20:58.093Z,0.00
2023-02-23T17:21:58.096Z,0.00
2023-02-23T17:22:58.067Z,0.00
2023-02-23T17:23:58.057Z,0.00
2023-02-23T17:24:58.043Z,0.00
2023-02-23T17:25:58.035Z,0.00
2023-02-23T17:26:58.034Z,0.00
2023-02-23T17:27:58.008Z,0.00
2023-02-23T17:28:58.016Z,0.00
2023-02-23T17:29:57.982Z,0.00
2023-02-23T17:30:58.036Z,0.00
2023-02-23T17:31:58.170Z,0.00
2023-02-23T17:32:58.161Z,0.00
2023-02-23T17:33:57.922Z,0.00
2023-02-23T17:34:57.902Z,0.00
2023-02-23T17:35:57.891Z,0.00
2023-02-23T17:36:57.889Z,0.00
2023-02-23T17:37:57.884Z,0.00
2023-02-23T17:38:57.854Z,0.00
2023-02-23T17:39:57.852Z,0.00
2023-02-23T17:40:57.829Z,0.00
2023-02-23T17:41:57.821Z,0.00
2023-02-23T17:42:57.818Z,0.00
2023-02-23T17:43:57.817Z,0.00
2023-02-23T17:44:57.798Z,0.00
2023-02-23T17:45:57.785Z,0.00
2023-02-23T17:46:57.755Z,0.00
2023-02-23T17:47:57.811Z,0.00
2023-02-23T17:48:57.730Z,0.00
2023-02-23T17:49:57.740Z,0.00
2023-02-23T17:50:57.726Z,0.00
2023-02-23T17:51:57.731Z,0.00
2023-02-23T17:52:57.724Z,0.00
2023-02-23T17:53:57.662Z,0.00
2023-02-23T17:54:59.397Z,0.00
2023-02-23T17:55:57.634Z,0.00
2023-02-23T17:56:57.617Z,0.00
2023-02-23T17:57:57.640Z,0.00
2023-02-23T17:58:57.585Z,0.00
2023-02-23T17:59:57.625Z,0.00
2023-02-23T18:00:57.567Z,0.00
2023-02-23T18:01:57.625Z,0.00
2023-02-23T18:02:57.563Z,0.00
2023-02-23T18:03:57.526Z,0.00
2023-02-23T18:04:57.512Z,0.00
2023-02-23T18:05:57.493Z,0.00
2023-02-23T18:06:57.484Z,0.00
2023-02-23T18:07:57.484Z,0.00
2023-02-23T18:08:57.489Z,0.00
2023-02-23T18:09:57.522Z,0.00
2023-02-23T18:10:57.439Z,0.00
2023-02-23T18:11:57.415Z,0.00
2023-02-23T18:12:57.442Z,0.00
2023-02-23T18:13:57.388Z,0.00